Lorton Lick, West Virginia
Current Conditions -  °F | °C
As of 10:52 PM on Friday 24 Oct 2014 (Local Time) from KBLF Reporting Station
Clear Clear  
Wind Chill: 41°   Ceiling: Unl
Heat Index: 45°   Visibility: 10mi
Dew Point: 36°   Wind: 8mph
Humidity: 71%   Direction: 260°W
Pressure: 30.08"   Gusts: NA
Location:  37.2994°N, 81.226°W
Report Text: KBLF 250252Z AUTO 26007KT 10SM CLR 07/02 A3008 RMK AO2 SLP184 T00720022 50003
Loading
Personal Weather Stations






























Interactive Weather Map New forecast layout! Learn more

10-Day Weather Forecast

Advertisements
Track Severe Weather on mobile